createdAt,value
2017-01-15T00:00:21.144Z,76.44
2017-01-15T00:01:21.151Z,76.82
2017-01-15T00:02:21.163Z,76.82
2017-01-15T00:03:21.178Z,76.92
2017-01-15T00:04:21.185Z,76.63
2017-01-15T00:05:21.198Z,76.63
2017-01-15T00:06:21.209Z,76.63
2017-01-15T00:07:21.221Z,77.39
2017-01-15T00:08:21.235Z,77.29
2017-01-15T00:09:21.246Z,77.11
2017-01-15T00:10:21.258Z,77.01
2017-01-15T00:11:21.271Z,77.01
2017-01-15T00:12:21.280Z,76.92
2017-01-15T00:13:21.289Z,76.63
2017-01-15T00:14:21.301Z,76.63
2017-01-15T00:15:21.311Z,76.92
2017-01-15T00:16:21.325Z,76.92
2017-01-15T00:17:21.335Z,77.01
2017-01-15T00:18:21.351Z,77.11
2017-01-15T00:19:21.356Z,77.01
2017-01-15T00:20:21.366Z,76.82
2017-01-15T00:21:21.380Z,76.92
2017-01-15T00:22:21.388Z,76.82
2017-01-15T00:23:21.398Z,77.39
2017-01-15T00:24:21.413Z,77.01
2017-01-15T00:25:21.428Z,77.11
2017-01-15T00:26:21.432Z,77.11
2017-01-15T00:27:21.447Z,77.2
2017-01-15T00:28:21.459Z,77.01
2017-01-15T00:29:21.465Z,77.11
2017-01-15T00:30:21.480Z,77.2
2017-01-15T00:31:21.491Z,77.11
2017-01-15T00:32:21.504Z,77.01
2017-01-15T00:33:21.512Z,77.11
2017-01-15T00:34:21.525Z,77.2
2017-01-15T00:35:21.544Z,76.92
2017-01-15T00:36:21.546Z,76.82
2017-01-15T00:37:21.558Z,77.2
2017-01-15T00:38:21.571Z,77.01
2017-01-15T00:39:21.583Z,77.01
2017-01-15T00:40:21.590Z,77.39
2017-01-15T00:41:21.598Z,77.11
2017-01-15T00:42:21.612Z,77.11
2017-01-15T00:43:21.626Z,77.11
2017-01-15T00:44:21.633Z,77.01
2017-01-15T00:45:21.643Z,77.2
2017-01-15T00:46:21.657Z,77.2
2017-01-15T00:47:21.667Z,77.39
2017-01-15T00:48:21.681Z,77.01
2017-01-15T00:49:21.691Z,77.2
2017-01-15T00:50:21.704Z,77.39
2017-01-15T00:51:21.717Z,76.82
2017-01-15T00:52:21.721Z,76.63
2017-01-15T00:53:21.732Z,76.73
2017-01-15T00:54:21.745Z,76.82
2017-01-15T00:55:21.757Z,76.63
2017-01-15T00:56:21.767Z,76.63
2017-01-15T00:57:21.780Z,76.82
2017-01-15T00:58:21.790Z,76.63
2017-01-15T00:59:21.800Z,76.82
2017-01-15T01:00:21.817Z,77.01
2017-01-15T01:01:21.825Z,77.01
2017-01-15T01:02:21.834Z,76.63
2017-01-15T01:03:21.848Z,77.39
2017-01-15T01:04:21.858Z,77.01
2017-01-15T01:05:21.873Z,77.2
2017-01-15T01:06:21.877Z,77.01
2017-01-15T01:07:21.897Z,77.39
2017-01-15T01:08:21.902Z,77.48
2017-01-15T01:09:21.916Z,77.11
2017-01-15T01:10:21.927Z,77.2
2017-01-15T01:11:21.936Z,76.92
2017-01-15T01:12:21.950Z,76.92
2017-01-15T01:13:21.959Z,76.82
2017-01-15T01:14:21.993Z,76.82
2017-01-15T01:15:21.982Z,76.82
2017-01-15T01:16:21.995Z,76.54
2017-01-15T01:17:22.003Z,76.63
2017-01-15T01:18:22.016Z,76.54
2017-01-15T01:19:22.026Z,76.25
2017-01-15T01:20:22.044Z,76.73
2017-01-15T01:21:22.049Z,76.25
2017-01-15T01:22:22.062Z,76.34
2017-01-15T01:23:22.069Z,76.92
2017-01-15T01:24:22.081Z,76.73
2017-01-15T01:25:22.091Z,76.54
2017-01-15T01:26:22.108Z,76.54
2017-01-15T01:27:22.120Z,76.54
2017-01-15T01:28:22.134Z,76.73
2017-01-15T01:29:22.143Z,76.63
2017-01-15T01:30:22.150Z,76.73
2017-01-15T01:31:22.165Z,76.54
2017-01-15T01:32:22.172Z,76.54
2017-01-15T01:33:22.191Z,76.44
2017-01-15T01:34:22.193Z,76.92
2017-01-15T01:35:22.208Z,77.11
2017-01-15T01:36:22.223Z,76.82
2017-01-15T01:37:22.231Z,77.01
2017-01-15T01:38:22.239Z,76.82
2017-01-15T01:39:22.255Z,76.73
2017-01-15T01:40:22.261Z,76.63
2017-01-15T01:41:22.274Z,77.11
2017-01-15T01:42:22.286Z,76.82
2017-01-15T01:43:22.295Z,77.11
2017-01-15T01:44:22.309Z,76.44
2017-01-15T01:45:22.319Z,76.54
2017-01-15T01:46:22.330Z,76.54
2017-01-15T01:47:22.342Z,76.63
2017-01-15T01:48:22.351Z,76.63
2017-01-15T01:49:22.360Z,76.63
2017-01-15T01:50:22.375Z,76.54
2017-01-15T01:51:22.385Z,76.34
2017-01-15T01:52:22.401Z,76.44
2017-01-15T01:53:22.411Z,76.92
2017-01-15T01:54:22.419Z,76.44
2017-01-15T01:55:22.433Z,76.63
2017-01-15T01:56:22.443Z,76.44
2017-01-15T01:57:22.452Z,76.44
2017-01-15T01:58:22.465Z,76.44
2017-01-15T01:59:22.473Z,76.82
2017-01-15T02:00:22.488Z,75.96
2017-01-15T02:01:22.499Z,76.73
2017-01-15T02:02:22.517Z,76.44
2017-01-15T02:03:22.570Z,76.82
2017-01-15T02:04:22.535Z,76.92
2017-01-15T02:05:22.546Z,76.54
2017-01-15T02:06:22.555Z,76.34
2017-01-15T02:07:22.563Z,76.34
2017-01-15T02:08:22.576Z,76.82
2017-01-15T02:09:22.591Z,76.92
2017-01-15T02:10:22.602Z,76.44
2017-01-15T02:11:22.608Z,76.63
2017-01-15T02:12:22.631Z,76.54
2017-01-15T02:13:22.633Z,76.54
2017-01-15T02:14:22.646Z,76.73
2017-01-15T02:15:22.657Z,76.73
2017-01-15T02:16:22.664Z,76.82
2017-01-15T02:17:22.679Z,76.54
2017-01-15T02:18:22.690Z,76.63
2017-01-15T02:19:22.703Z,76.44
2017-01-15T02:20:22.782Z,76.25
2017-01-15T02:21:22.722Z,76.44
2017-01-15T02:22:22.762Z,76.63
2017-01-15T02:23:22.743Z,76.63
2017-01-15T02:24:22.756Z,76.25
2017-01-15T02:25:22.770Z,76.25
2017-01-15T02:26:22.785Z,76.54
2017-01-15T02:27:22.798Z,76.63
2017-01-15T02:28:22.800Z,76.44
2017-01-15T02:29:22.814Z,76.92
2017-01-15T02:30:22.825Z,76.25
2017-01-15T02:31:22.836Z,76.63
2017-01-15T02:32:22.850Z,76.82
2017-01-15T02:33:22.862Z,76.15
2017-01-15T02:34:22.869Z,76.44
2017-01-15T02:35:22.882Z,76.63
2017-01-15T02:36:22.890Z,76.44
2017-01-15T02:37:22.906Z,76.73
2017-01-15T02:38:22.912Z,76.34
2017-01-15T02:39:22.925Z,76.54
2017-01-15T02:40:22.941Z,76.44
2017-01-15T02:41:22.946Z,76.44
2017-01-15T02:42:22.958Z,76.44
2017-01-15T02:43:22.975Z,76.44
2017-01-15T02:44:22.978Z,76.73
2017-01-15T02:45:22.995Z,76.73
2017-01-15T02:46:23.003Z,76.92
2017-01-15T02:47:23.017Z,76.63
2017-01-15T02:48:23.026Z,76.44
2017-01-15T02:49:23.037Z,76.63
2017-01-15T02:50:23.050Z,76.54
2017-01-15T02:51:23.088Z,76.63
2017-01-15T02:52:23.159Z,76.34
2017-01-15T02:53:23.086Z,76.73
2017-01-15T02:54:23.091Z,76.25
2017-01-15T02:55:23.101Z,76.15
2017-01-15T02:56:23.116Z,75.59
2017-01-15T02:57:23.126Z,75.96
2017-01-15T02:58:23.138Z,76.06
2017-01-15T02:59:23.156Z,75.87
2017-01-15T03:00:23.161Z,75.78
2017-01-15T03:01:23.175Z,75.87
2017-01-15T03:02:23.181Z,75.87
2017-01-15T03:03:23.194Z,75.59
2017-01-15T03:04:23.206Z,75.31
2017-01-15T03:05:23.220Z,75.68
2017-01-15T03:06:23.231Z,75.59
2017-01-15T03:07:23.241Z,76.15
2017-01-15T03:08:23.251Z,76.15
2017-01-15T03:09:23.262Z,75.96
2017-01-15T03:10:23.270Z,76.06
2017-01-15T03:11:23.286Z,76.15
2017-01-15T03:12:23.301Z,75.4
2017-01-15T03:13:23.308Z,75.4
2017-01-15T03:14:23.321Z,75.49
2017-01-15T03:15:23.329Z,75.68
2017-01-15T03:16:23.340Z,75.78
2017-01-15T03:17:23.351Z,76.06
2017-01-15T03:18:23.360Z,75.21
2017-01-15T03:19:23.375Z,75.02
2017-01-15T03:20:23.384Z,74.92
2017-01-15T03:21:23.396Z,75.02
2017-01-15T03:22:23.404Z,75.11
2017-01-15T03:23:23.417Z,75.11
2017-01-15T03:24:23.429Z,74.92
2017-01-15T03:25:23.440Z,75.59
2017-01-15T03:26:23.446Z,75.11
2017-01-15T03:27:23.462Z,75.17
2017-01-15T03:28:23.471Z,75.49
2017-01-15T03:29:23.486Z,76.06
2017-01-15T03:30:23.496Z,75.4
2017-01-15T03:31:23.516Z,75.59
2017-01-15T03:32:23.518Z,74.92
2017-01-15T03:33:23.529Z,75.02
2017-01-15T03:34:23.545Z,74.98
2017-01-15T03:35:23.550Z,75.21
2017-01-15T03:36:23.559Z,75.31
2017-01-15T03:37:23.575Z,74.54
2017-01-15T03:38:23.581Z,75.07
2017-01-15T03:39:23.598Z,75.26
2017-01-15T03:40:23.605Z,75.17
2017-01-15T03:41:23.616Z,74.51
2017-01-15T03:42:23.624Z,74.41
2017-01-15T03:43:23.639Z,74.22
2017-01-15T03:44:23.648Z,74.51
2017-01-15T03:45:23.659Z,74.79
2017-01-15T03:46:23.671Z,74.98
2017-01-15T03:47:23.681Z,75.07
2017-01-15T03:48:23.692Z,75.26
2017-01-15T03:49:23.704Z,75.26
2017-01-15T03:50:23.738Z,75.26
2017-01-15T03:51:23.726Z,74.98
2017-01-15T03:52:23.738Z,75.17
2017-01-15T03:53:23.749Z,75.07
2017-01-15T03:54:23.759Z,75.17
2017-01-15T03:55:23.776Z,75.26
2017-01-15T03:56:23.781Z,74.79
2017-01-15T03:57:23.791Z,75.17
2017-01-15T03:58:23.800Z,75.07
2017-01-15T03:59:23.812Z,75.55
2017-01-15T04:00:23.827Z,75.45
2017-01-15T04:01:23.842Z,75.74
2017-01-15T04:02:23.849Z,75.45
2017-01-15T04:03:23.857Z,75.36
2017-01-15T04:04:23.868Z,75.55
2017-01-15T04:05:23.880Z,75.36
2017-01-15T04:06:23.890Z,75.26
2017-01-15T04:07:23.897Z,75.17
2017-01-15T04:08:23.910Z,75.55
2017-01-15T04:09:23.919Z,75.64
2017-01-15T04:10:23.934Z,74.88
2017-01-15T04:11:23.945Z,75.17
2017-01-15T04:12:23.954Z,74.88
2017-01-15T04:13:23.966Z,75.17
2017-01-15T04:14:23.980Z,74.88
2017-01-15T04:15:23.990Z,75.26
2017-01-15T04:16:24.000Z,74.88
2017-01-15T04:17:24.007Z,75.55
2017-01-15T04:18:24.028Z,75.45
2017-01-15T04:19:24.031Z,75.64
2017-01-15T04:20:24.040Z,75.45
2017-01-15T04:21:24.056Z,75.45
2017-01-15T04:22:24.066Z,75.45
2017-01-15T04:23:24.077Z,75.64
2017-01-15T04:24:24.086Z,75.36
2017-01-15T04:25:24.098Z,75.59
2017-01-15T04:26:24.106Z,75.55
2017-01-15T04:27:24.120Z,75.64
2017-01-15T04:28:24.130Z,75.96
2017-01-15T04:29:24.142Z,75.96
2017-01-15T04:30:24.149Z,76.12
2017-01-15T04:31:24.167Z,76.12
2017-01-15T04:32:24.173Z,75.78
2017-01-15T04:33:24.186Z,75.55
2017-01-15T04:34:24.194Z,74.98
2017-01-15T04:35:24.208Z,75.4
2017-01-15T04:36:24.219Z,75.07
2017-01-15T04:37:24.231Z,74.79
2017-01-15T04:38:24.239Z,74.51
2017-01-15T04:39:24.251Z,74.35
2017-01-15T04:40:24.258Z,74.6
2017-01-15T04:41:24.270Z,74.51
2017-01-15T04:42:24.278Z,74.22
2017-01-15T04:43:24.292Z,74.41
2017-01-15T04:44:24.306Z,74.79
2017-01-15T04:45:24.312Z,74.32
2017-01-15T04:46:24.324Z,74.88
2017-01-15T04:47:24.337Z,74.6
2017-01-15T04:48:24.346Z,74.88
2017-01-15T04:49:24.358Z,74.98
2017-01-15T04:50:24.370Z,75.07
2017-01-15T04:51:24.380Z,75.17
2017-01-15T04:52:24.393Z,75.17
2017-01-15T04:53:24.401Z,74.98
2017-01-15T04:54:24.415Z,74.41
2017-01-15T04:55:24.422Z,74.22
2017-01-15T04:56:24.436Z,74.41
2017-01-15T04:57:24.444Z,74.69
2017-01-15T04:58:24.454Z,75.07
2017-01-15T04:59:24.469Z,75.26
2017-01-15T05:00:24.478Z,75.26
2017-01-15T05:01:24.488Z,75.17
2017-01-15T05:02:24.499Z,75.07
2017-01-15T05:03:24.510Z,74.22
2017-01-15T05:04:24.519Z,74.41
2017-01-15T05:05:24.530Z,74.41
2017-01-15T05:06:24.540Z,73.75
2017-01-15T05:07:24.552Z,74.41
2017-01-15T05:08:24.563Z,74.13
2017-01-15T05:09:24.575Z,74.6
2017-01-15T05:10:24.584Z,74.51
2017-01-15T05:11:24.594Z,74.32
2017-01-15T05:12:24.606Z,74.22
2017-01-15T05:13:24.615Z,74.13
2017-01-15T05:14:24.627Z,74.98
2017-01-15T05:15:24.636Z,74.22
2017-01-15T05:16:24.652Z,74.6
2017-01-15T05:17:24.659Z,73.75
2017-01-15T05:18:24.672Z,74.32
2017-01-15T05:19:24.681Z,74.6
2017-01-15T05:20:24.689Z,74.6
2017-01-15T05:21:24.699Z,74.41
2017-01-15T05:22:24.711Z,74.22
2017-01-15T05:23:24.726Z,74.79
2017-01-15T05:24:24.734Z,74.6
2017-01-15T05:25:24.747Z,74.51
2017-01-15T05:26:24.755Z,74.51
2017-01-15T05:27:24.765Z,74.13
2017-01-15T05:28:24.780Z,74.41
2017-01-15T05:29:24.790Z,74.51
2017-01-15T05:30:24.800Z,74.51
2017-01-15T05:31:24.812Z,74.6
2017-01-15T05:32:24.820Z,74.51
2017-01-15T05:33:24.836Z,74.22
2017-01-15T05:34:24.839Z,74.51
2017-01-15T05:35:24.856Z,74.51
2017-01-15T05:36:24.867Z,74.79
2017-01-15T05:37:24.880Z,74.51
2017-01-15T05:38:24.887Z,74.51
2017-01-15T05:39:24.896Z,74.69
2017-01-15T05:40:24.905Z,74.69
2017-01-15T05:41:24.915Z,74.6
2017-01-15T05:42:24.932Z,74.41
2017-01-15T05:43:24.938Z,74.51
2017-01-15T05:44:24.953Z,74.51
2017-01-15T05:45:24.958Z,74.79
2017-01-15T05:46:24.973Z,74.22
2017-01-15T05:47:24.981Z,74.22
2017-01-15T05:48:24.992Z,74.51
2017-01-15T05:49:25.003Z,74.41
2017-01-15T05:50:25.012Z,74.32
2017-01-15T05:51:25.027Z,74.32
2017-01-15T05:52:25.031Z,74.69
2017-01-15T05:53:25.050Z,74.98
2017-01-15T05:54:25.054Z,74.51
2017-01-15T05:55:25.067Z,74.79
2017-01-15T05:56:25.077Z,75.26
2017-01-15T05:57:25.092Z,75.07
2017-01-15T05:58:25.098Z,75.26
2017-01-15T05:59:25.110Z,74.6
2017-01-15T06:00:25.127Z,74.22
2017-01-15T06:01:25.131Z,74.51
2017-01-15T06:02:25.137Z,74.41
2017-01-15T06:03:25.151Z,74.32
2017-01-15T06:04:25.161Z,74.69
2017-01-15T06:05:25.179Z,74.51
2017-01-15T06:06:25.184Z,75.26
2017-01-15T06:07:25.195Z,74.79
2017-01-15T06:08:25.212Z,74.51
2017-01-15T06:09:25.217Z,74.79
2017-01-15T06:10:25.231Z,74.88
2017-01-15T06:11:25.350Z,75.26
2017-01-15T06:12:25.253Z,75.17
2017-01-15T06:13:25.258Z,74.79
2017-01-15T06:14:25.267Z,75.17
2017-01-15T06:15:25.279Z,74.79
2017-01-15T06:16:25.291Z,75.07
2017-01-15T06:17:25.306Z,75.07
2017-01-15T06:18:25.313Z,75.17
2017-01-15T06:19:25.325Z,74.88
2017-01-15T06:20:25.337Z,74.88
2017-01-15T06:21:25.350Z,75.26
2017-01-15T06:22:25.357Z,75.45
2017-01-15T06:23:25.366Z,75.64
2017-01-15T06:24:25.378Z,75.84
2017-01-15T06:25:25.387Z,75.07
2017-01-15T06:26:25.399Z,75.64
2017-01-15T06:27:25.410Z,75.74
2017-01-15T06:28:25.419Z,75.74
2017-01-15T06:29:25.433Z,75.36
2017-01-15T06:30:25.443Z,75.31
2017-01-15T06:31:25.453Z,75.64
2017-01-15T06:32:25.471Z,75.55
2017-01-15T06:33:25.476Z,75.55
2017-01-15T06:34:25.488Z,75.74
2017-01-15T06:35:25.702Z,75.64
2017-01-15T06:36:25.504Z,76.12
2017-01-15T06:37:25.517Z,76.12
2017-01-15T06:38:25.527Z,76.06
2017-01-15T06:39:25.654Z,75.64
2017-01-15T06:40:25.552Z,75.64
2017-01-15T06:41:25.561Z,75.36
2017-01-15T06:42:25.577Z,75.21
2017-01-15T06:43:25.585Z,75.64
2017-01-15T06:44:25.593Z,75.64
2017-01-15T06:45:25.600Z,74.98
2017-01-15T06:46:25.616Z,75.07
2017-01-15T06:47:25.631Z,75.17
2017-01-15T06:48:25.639Z,75.36
2017-01-15T06:49:25.646Z,75.36
2017-01-15T06:50:25.655Z,74.98
2017-01-15T06:51:25.671Z,74.98
2017-01-15T06:52:25.681Z,75.55
2017-01-15T06:53:25.688Z,75.07
2017-01-15T06:54:25.701Z,74.79
2017-01-15T06:55:25.714Z,74.98
2017-01-15T06:56:25.722Z,75.36
2017-01-15T06:57:25.853Z,75.74
2017-01-15T06:58:25.743Z,75.55
2017-01-15T06:59:25.756Z,76.12
2017-01-15T07:00:25.792Z,75.74
2017-01-15T07:01:25.775Z,76.03
2017-01-15T07:02:25.785Z,75.84
2017-01-15T07:03:25.801Z,75.84
2017-01-15T07:04:25.862Z,75.64
2017-01-15T07:05:25.817Z,75.74
2017-01-15T07:06:25.833Z,75.64
2017-01-15T07:07:25.841Z,75.74
2017-01-15T07:08:25.846Z,76.03
2017-01-15T07:09:25.867Z,75.84
2017-01-15T07:10:25.871Z,75.64
2017-01-15T07:11:25.887Z,75.84
2017-01-15T07:12:25.905Z,75.84
2017-01-15T07:13:25.907Z,75.93
2017-01-15T07:14:25.917Z,76.12
2017-01-15T07:15:25.926Z,76.12
2017-01-15T07:16:25.936Z,76.59
2017-01-15T07:17:25.949Z,75.64
2017-01-15T07:18:25.958Z,76.63
2017-01-15T07:19:25.970Z,76.68
2017-01-15T07:20:25.983Z,76.73
2017-01-15T07:21:26.147Z,76.59
2017-01-15T07:22:26.002Z,76.5
2017-01-15T07:23:26.017Z,76.68
2017-01-15T07:24:26.023Z,76.73
2017-01-15T07:25:26.034Z,76.54
2017-01-15T07:26:26.047Z,76.25
2017-01-15T07:27:26.060Z,76.54
2017-01-15T07:28:26.067Z,76.54
2017-01-15T07:29:26.076Z,76.54
2017-01-15T07:30:26.086Z,76.78
2017-01-15T07:31:26.219Z,76.63
2017-01-15T07:32:26.107Z,76.12
2017-01-15T07:33:26.119Z,76.54
2017-01-15T07:34:26.131Z,76.54
2017-01-15T07:35:26.143Z,76.15
2017-01-15T07:36:26.271Z,76.54
2017-01-15T07:37:26.164Z,76.59
2017-01-15T07:38:26.291Z,76.25
2017-01-15T07:39:26.185Z,76.82
2017-01-15T07:40:26.309Z,76.92
2017-01-15T07:41:26.206Z,76.44
2017-01-15T07:42:26.217Z,76.63
2017-01-15T07:43:26.226Z,76.15
2017-01-15T07:44:26.238Z,76.5
2017-01-15T07:45:26.363Z,76.44
2017-01-15T07:46:26.285Z,76.06
2017-01-15T07:47:26.270Z,75.96
2017-01-15T07:48:26.397Z,76.25
2017-01-15T07:49:26.292Z,76.25
2017-01-15T07:50:26.415Z,76.25
2017-01-15T07:51:26.318Z,75.96
2017-01-15T07:52:26.327Z,76.15
2017-01-15T07:53:26.334Z,76.06
2017-01-15T07:54:26.349Z,76.06
2017-01-15T07:55:26.361Z,75.78
2017-01-15T07:56:26.364Z,76.54
2017-01-15T07:57:26.382Z,76.63
2017-01-15T07:58:26.387Z,76.59
2017-01-15T07:59:26.401Z,76.54
2017-01-15T08:00:26.414Z,76.54
2017-01-15T08:01:26.422Z,76.25
2017-01-15T08:02:26.433Z,76.92
2017-01-15T08:03:26.556Z,76.54
2017-01-15T08:04:26.458Z,76.54
2017-01-15T08:05:26.583Z,76.73
2017-01-15T08:06:26.592Z,76.15
2017-01-15T08:07:26.489Z,76.25
2017-01-15T08:08:26.498Z,76.54
2017-01-15T08:09:26.699Z,76.34
2017-01-15T08:10:26.637Z,76.63
2017-01-15T08:11:26.645Z,76.73
2017-01-15T08:12:26.700Z,76.25
2017-01-15T08:13:26.673Z,76.34
2017-01-15T08:14:26.563Z,76.15
2017-01-15T08:15:26.698Z,76.15
2017-01-15T08:16:26.699Z,76.15
2017-01-15T08:17:26.600Z,75.78
2017-01-15T08:18:26.607Z,75.78
2017-01-15T08:19:26.616Z,75.49
2017-01-15T08:20:26.628Z,75.78
2017-01-15T08:21:26.752Z,75.96
2017-01-15T08:22:26.772Z,75.74
2017-01-15T08:23:26.772Z,75.87
2017-01-15T08:24:26.673Z,76.25
2017-01-15T08:25:26.680Z,75.49
2017-01-15T08:26:26.703Z,75.64
2017-01-15T08:27:26.707Z,75.93
2017-01-15T08:28:26.716Z,75.64
2017-01-15T08:29:26.834Z,76.21
2017-01-15T08:30:26.733Z,76.5
2017-01-15T08:31:26.744Z,76.15
2017-01-15T08:32:26.759Z,75.74
2017-01-15T08:33:26.764Z,76.12
2017-01-15T08:34:26.778Z,75.59
2017-01-15T08:35:26.786Z,76.12
2017-01-15T08:36:26.801Z,76.44
2017-01-15T08:37:26.811Z,76.63
2017-01-15T08:38:26.822Z,76.63
2017-01-15T08:39:26.829Z,76.54
2017-01-15T08:40:26.840Z,76.15
2017-01-15T08:41:26.968Z,76.15
2017-01-15T08:42:26.869Z,76.34
2017-01-15T08:43:26.873Z,76.73
2017-01-15T08:44:26.886Z,76.54
2017-01-15T08:45:26.895Z,76.34
2017-01-15T08:46:27.028Z,76.34
2017-01-15T08:47:26.922Z,76.34
2017-01-15T08:48:26.927Z,76.34
2017-01-15T08:49:26.940Z,76.54
2017-01-15T08:50:26.958Z,76.63
2017-01-15T08:51:26.965Z,76.44
2017-01-15T08:52:26.978Z,76.15
2017-01-15T08:53:26.985Z,75.68
2017-01-15T08:54:26.991Z,75.78
2017-01-15T08:55:27.002Z,75.59
2017-01-15T08:56:27.019Z,75.78
2017-01-15T08:57:27.154Z,76.15
2017-01-15T08:58:27.107Z,75.78
2017-01-15T08:59:27.055Z,75.87
2017-01-15T09:00:27.059Z,76.06
2017-01-15T09:01:27.070Z,75.96
2017-01-15T09:02:27.081Z,76.25
2017-01-15T09:03:27.090Z,76.34
2017-01-15T09:04:27.101Z,76.15
2017-01-15T09:05:27.115Z,75.78
2017-01-15T09:06:27.126Z,75.96
2017-01-15T09:07:27.155Z,75.74
2017-01-15T09:08:27.150Z,76.25
2017-01-15T09:09:27.158Z,76.54
2017-01-15T09:10:27.165Z,75.87
2017-01-15T09:11:27.179Z,75.84
2017-01-15T09:12:27.289Z,75.74
2017-01-15T09:13:27.200Z,76.31
2017-01-15T09:14:27.323Z,76.21
2017-01-15T09:15:27.228Z,76.73
2017-01-15T09:16:27.232Z,76.44
2017-01-15T09:17:27.243Z,76.06
2017-01-15T09:18:27.370Z,76.15
2017-01-15T09:19:27.268Z,76.54
2017-01-15T09:20:27.275Z,76.25
2017-01-15T09:21:27.288Z,76.15
2017-01-15T09:22:27.297Z,76.31
2017-01-15T09:23:27.310Z,76.44
2017-01-15T09:24:27.442Z,76.5
2017-01-15T09:25:27.360Z,76.78
2017-01-15T09:26:27.349Z,76.31
2017-01-15T09:27:27.492Z,76.4
2017-01-15T09:28:27.361Z,76.4
2017-01-15T09:29:27.375Z,76.82
2017-01-15T09:30:27.390Z,76.82
2017-01-15T09:31:27.395Z,77.2
2017-01-15T09:32:27.411Z,77.11
2017-01-15T09:33:27.420Z,77.2
2017-01-15T09:34:27.433Z,77.01
2017-01-15T09:35:27.443Z,77.77
2017-01-15T09:36:27.452Z,77.2
2017-01-15T09:37:27.463Z,77.01
2017-01-15T09:38:27.475Z,76.92
2017-01-15T09:39:27.484Z,76.73
2017-01-15T09:40:27.496Z,76.82
2017-01-15T09:41:27.508Z,77.11
2017-01-15T09:42:27.518Z,77.2
2017-01-15T09:43:27.532Z,76.34
2017-01-15T09:44:27.541Z,77.01
2017-01-15T09:45:27.552Z,76.82
2017-01-15T09:46:27.562Z,76.34
2017-01-15T09:47:27.577Z,76.54
2017-01-15T09:48:27.596Z,76.82
2017-01-15T09:49:27.595Z,76.54
2017-01-15T09:50:27.610Z,76.54
2017-01-15T09:51:27.619Z,77.01
2017-01-15T09:52:27.625Z,76.82
2017-01-15T09:53:27.636Z,77.11
2017-01-15T09:54:27.671Z,76.82
2017-01-15T09:55:27.657Z,77.01
2017-01-15T09:56:27.673Z,77.01
2017-01-15T09:57:27.679Z,76.44
2017-01-15T09:58:27.765Z,76.54
2017-01-15T09:59:27.710Z,76.54
2017-01-15T10:00:27.716Z,76.54
2017-01-15T10:01:27.729Z,76.54
2017-01-15T10:02:27.737Z,76.25
2017-01-15T10:03:27.750Z,76.25
2017-01-15T10:04:27.757Z,76.15
2017-01-15T10:05:27.775Z,75.96
2017-01-15T10:06:27.783Z,75.78
2017-01-15T10:07:27.794Z,76.06
2017-01-15T10:08:27.805Z,75.87
2017-01-15T10:09:27.813Z,76.44
2017-01-15T10:10:27.824Z,75.78
2017-01-15T10:11:27.838Z,76.92
2017-01-15T10:12:27.848Z,76.63
2017-01-15T10:13:27.861Z,76.44
2017-01-15T10:14:27.869Z,76.34
2017-01-15T10:15:27.882Z,77.01
2017-01-15T10:16:27.919Z,77.11
2017-01-15T10:17:27.904Z,76.54
2017-01-15T10:18:27.911Z,76.73
2017-01-15T10:19:27.927Z,76.63
2017-01-15T10:20:27.933Z,76.73
2017-01-15T10:21:27.946Z,76.63
2017-01-15T10:22:27.954Z,76.54
2017-01-15T10:23:27.972Z,76.25
2017-01-15T10:24:27.999Z,76.63
2017-01-15T10:25:27.994Z,76.63
2017-01-15T10:26:28.001Z,76.25
2017-01-15T10:27:28.012Z,75.78
2017-01-15T10:28:28.022Z,75.78
2017-01-15T10:29:28.036Z,76.15
2017-01-15T10:30:28.043Z,75.59
2017-01-15T10:31:28.054Z,75.59
2017-01-15T10:32:28.069Z,75.87
2017-01-15T10:33:28.102Z,76.63
2017-01-15T10:34:28.087Z,76.15
2017-01-15T10:35:28.098Z,76.54
2017-01-15T10:36:28.110Z,76.25
2017-01-15T10:37:28.122Z,76.54
2017-01-15T10:38:28.143Z,76.73
2017-01-15T10:39:28.145Z,76.92
2017-01-15T10:40:28.155Z,76.92
2017-01-15T10:41:28.167Z,77.01
2017-01-15T10:42:28.179Z,77.11
2017-01-15T10:43:28.188Z,76.44
2017-01-15T10:44:28.202Z,76.54
2017-01-15T10:45:28.212Z,76.92
2017-01-15T10:46:28.343Z,76.34
2017-01-15T10:47:28.233Z,76.73
2017-01-15T10:48:28.243Z,76.44
2017-01-15T10:49:28.257Z,76.54
2017-01-15T10:50:28.267Z,76.44
2017-01-15T10:51:28.278Z,76.54
2017-01-15T10:52:28.289Z,76.73
2017-01-15T10:53:28.301Z,76.44
2017-01-15T10:54:28.311Z,76.73
2017-01-15T10:55:28.327Z,76.54
2017-01-15T10:56:28.332Z,76.82
2017-01-15T10:57:28.346Z,76.92
2017-01-15T10:58:28.353Z,77.39
2017-01-15T10:59:28.364Z,76.92
2017-01-15T11:00:28.380Z,77.77
2017-01-15T11:01:28.385Z,77.48
2017-01-15T11:02:28.401Z,77.2
2017-01-15T11:03:28.415Z,76.63
2017-01-15T11:04:28.424Z,76.82
2017-01-15T11:05:28.437Z,76.73
2017-01-15T11:06:28.449Z,77.2
2017-01-15T11:07:28.457Z,77.01
2017-01-15T11:08:28.466Z,76.63
2017-01-15T11:09:28.478Z,76.73
2017-01-15T11:10:28.485Z,77.11
2017-01-15T11:11:28.499Z,76.92
2017-01-15T11:12:28.532Z,76.54
2017-01-15T11:13:28.526Z,76.63
2017-01-15T11:14:28.536Z,76.34
2017-01-15T11:15:28.548Z,75.96
2017-01-15T11:16:28.556Z,75.87
2017-01-15T11:17:28.570Z,76.15
2017-01-15T11:18:28.580Z,75.4
2017-01-15T11:19:28.591Z,75.49
2017-01-15T11:20:28.604Z,76.15
2017-01-15T11:21:28.611Z,76.34
2017-01-15T11:22:28.622Z,76.25
2017-01-15T11:23:28.638Z,76.25
2017-01-15T11:24:28.649Z,75.87
2017-01-15T11:25:28.779Z,76.54
2017-01-15T11:26:28.683Z,76.63
2017-01-15T11:27:28.681Z,77.11
2017-01-15T11:28:28.774Z,76.82
2017-01-15T11:29:28.701Z,76.92
2017-01-15T11:30:28.715Z,76.92
2017-01-15T11:31:28.731Z,77.05
2017-01-15T11:32:28.740Z,76.48
2017-01-15T11:33:28.750Z,75.53
2017-01-15T11:34:28.761Z,75.15
2017-01-15T11:35:28.776Z,75.24
2017-01-15T11:36:28.783Z,74.96
2017-01-15T11:37:28.944Z,74.26
2017-01-15T11:38:28.807Z,75.05
2017-01-15T11:39:28.816Z,75.05
2017-01-15T11:40:28.828Z,75.15
2017-01-15T11:41:28.845Z,75.24
2017-01-15T11:42:28.850Z,74.92
2017-01-15T11:43:28.861Z,74.49
2017-01-15T11:44:28.880Z,74.2
2017-01-15T11:45:28.887Z,73.88
2017-01-15T11:46:28.897Z,74.45
2017-01-15T11:47:28.907Z,74.26
2017-01-15T11:48:28.921Z,73.88
2017-01-15T11:49:28.929Z,74.07
2017-01-15T11:50:28.944Z,73.69
2017-01-15T11:51:28.956Z,73.22
2017-01-15T11:52:28.968Z,73.22
2017-01-15T11:53:28.995Z,73.69
2017-01-15T11:54:28.989Z,73.69
2017-01-15T11:55:29.001Z,73.69
2017-01-15T11:56:29.013Z,73.6
2017-01-15T11:57:29.026Z,73.22
2017-01-15T11:58:29.033Z,73.69
2017-01-15T11:59:29.044Z,74.16
2017-01-15T12:00:29.059Z,74.64
2017-01-15T12:01:29.066Z,74.64
2017-01-15T12:02:29.078Z,74.64
2017-01-15T12:03:29.092Z,74.26
2017-01-15T12:04:29.106Z,74.54
2017-01-15T12:05:29.124Z,74.45
2017-01-15T12:06:29.126Z,74.07
2017-01-15T12:07:29.146Z,74.07
2017-01-15T12:08:29.148Z,74.16
2017-01-15T12:09:29.161Z,73.79
2017-01-15T12:10:29.175Z,73.97
2017-01-15T12:11:29.184Z,73.79
2017-01-15T12:12:29.192Z,73.41
2017-01-15T12:13:29.208Z,73.69
2017-01-15T12:14:29.214Z,73.6
2017-01-15T12:15:29.249Z,73.12
2017-01-15T12:16:29.237Z,73.41
2017-01-15T12:17:29.250Z,73.69
2017-01-15T12:18:29.260Z,73.41
2017-01-15T12:19:29.275Z,73.22
2017-01-15T12:20:29.286Z,73.79
2017-01-15T12:21:29.298Z,73.79
2017-01-15T12:22:29.310Z,73.88
2017-01-15T12:23:29.324Z,74.26
2017-01-15T12:24:29.334Z,74.07
2017-01-15T12:25:29.343Z,73.79
2017-01-15T12:26:29.351Z,74.07
2017-01-15T12:27:29.362Z,73.79
2017-01-15T12:28:29.472Z,73.6
2017-01-15T12:29:29.387Z,74.07
2017-01-15T12:30:29.400Z,73.79
2017-01-15T12:31:29.412Z,73.69
2017-01-15T12:32:29.424Z,73.88
2017-01-15T12:33:29.435Z,73.5
2017-01-15T12:34:29.462Z,74.45
2017-01-15T12:35:29.457Z,73.97
2017-01-15T12:36:29.482Z,74.07
2017-01-15T12:37:29.489Z,74.35
2017-01-15T12:38:29.491Z,74.54
2017-01-15T12:39:29.501Z,74.54
2017-01-15T12:40:29.541Z,73.88
2017-01-15T12:41:29.523Z,73.69
2017-01-15T12:42:29.536Z,73.41
2017-01-15T12:43:29.548Z,73.79
2017-01-15T12:44:29.561Z,74.26
2017-01-15T12:45:29.567Z,74.26
2017-01-15T12:46:29.582Z,73.69
2017-01-15T12:47:29.597Z,73.22
2017-01-15T12:48:29.604Z,73.5
2017-01-15T12:49:29.616Z,73.6
2017-01-15T12:50:29.629Z,73.69
2017-01-15T12:51:29.641Z,73.22
2017-01-15T12:52:29.652Z,73.22
2017-01-15T12:53:29.659Z,73.5
2017-01-15T12:54:29.673Z,73.22